sensor_id;sensor_type;location;lat;lon;timestamp;pressure;altitude;pressure_sealevel;temperature;humidity
65557;BME280;52200;53.490;14.376;2023-04-15T00:01:00;100591.66;;;6.23;100.00
65557;BME280;52200;53.490;14.376;2023-04-15T00:03:25;100594.81;;;6.40;100.00
65557;BME280;52200;53.490;14.376;2023-04-15T00:05:51;100598.88;;;6.54;100.00
65557;BME280;52200;53.490;14.376;2023-04-15T00:08:16;100597.19;;;6.53;100.00
65557;BME280;52200;53.490;14.376;2023-04-15T00:10:42;100591.25;;;6.57;100.00
65557;BME280;52200;53.490;14.376;2023-04-15T00:13:10;100593.16;;;6.39;100.00
65557;BME280;52200;53.490;14.376;2023-04-15T00:15:35;100593.41;;;6.16;100.00
65557;BME280;52200;53.490;14.376;2023-04-15T00:18:02;100591.53;;;6.32;100.00
65557;BME280;52200;53.490;14.376;2023-04-15T00:20:28;100591.41;;;6.44;100.00
65557;BME280;52200;53.490;14.376;2023-04-15T00:22:54;100588.94;;;6.38;100.00
65557;BME280;52200;53.490;14.376;2023-04-15T00:25:19;100594.91;;;6.34;100.00
65557;BME280;52200;53.490;14.376;2023-04-15T00:27:44;100594.03;;;6.37;100.00
65557;BME280;52200;53.490;14.376;2023-04-15T00:30:10;100591.84;;;6.04;100.00
65557;BME280;52200;53.490;14.376;2023-04-15T00:32:35;100591.03;;;6.02;100.00
65557;BME280;52200;53.490;14.376;2023-04-15T00:35:01;100591.06;;;5.96;100.00
65557;BME280;52200;53.490;14.376;2023-04-15T00:37:27;100584.25;;;6.06;100.00
65557;BME280;52200;53.490;14.376;2023-04-15T00:39:52;100589.38;;;5.96;100.00
65557;BME280;52200;53.490;14.376;2023-04-15T00:42:18;100588.44;;;6.11;100.00
65557;BME280;52200;53.490;14.376;2023-04-15T00:44:45;100585.06;;;6.09;100.00
65557;BME280;52200;53.490;14.376;2023-04-15T00:47:11;100595.97;;;6.10;100.00
65557;BME280;52200;53.490;14.376;2023-04-15T00:49:37;100598.59;;;6.02;99.52
65557;BME280;52200;53.490;14.376;2023-04-15T00:52:02;100592.03;;;5.82;100.00
65557;BME280;52200;53.490;14.376;2023-04-15T00:54:28;100587.75;;;5.91;99.43
65557;BME280;52200;53.490;14.376;2023-04-15T00:56:53;100593.03;;;5.64;100.00
65557;BME280;52200;53.490;14.376;2023-04-15T00:59:19;100585.34;;;5.75;99.59
65557;BME280;52200;53.490;14.376;2023-04-15T01:01:45;100584.63;;;5.62;99.21
65557;BME280;52200;53.490;14.376;2023-04-15T01:04:11;100587.97;;;5.66;100.00
65557;BME280;52200;53.490;14.376;2023-04-15T01:06:37;100578.75;;;5.63;100.00
65557;BME280;52200;53.490;14.376;2023-04-15T01:09:02;100580.41;;;5.66;100.00
65557;BME280;52200;53.490;14.376;2023-04-15T01:11:28;100584.56;;;5.73;100.00
65557;BME280;52200;53.490;14.376;2023-04-15T01:13:55;100575.38;;;5.63;100.00
65557;BME280;52200;53.490;14.376;2023-04-15T01:16:22;100577.78;;;5.75;100.00
65557;BME280;52200;53.490;14.376;2023-04-15T01:18:48;100579.53;;;5.70;100.00
65557;BME280;52200;53.490;14.376;2023-04-15T01:21:13;100576.94;;;5.76;100.00
65557;BME280;52200;53.490;14.376;2023-04-15T01:23:39;100577.84;;;5.71;100.00
65557;BME280;52200;53.490;14.376;2023-04-15T01:26:05;100582.94;;;5.66;100.00
65557;BME280;52200;53.490;14.376;2023-04-15T01:28:35;100585.34;;;5.78;99.98
65557;BME280;52200;53.490;14.376;2023-04-15T01:31:12;100582.09;;;5.67;100.00
65557;BME280;52200;53.490;14.376;2023-04-15T01:33:39;100575.50;;;5.51;100.00
65557;BME280;52200;53.490;14.376;2023-04-15T01:36:06;100578.84;;;5.53;100.00
65557;BME280;52200;53.490;14.376;2023-04-15T01:38:33;100571.25;;;5.54;99.96
65557;BME280;52200;53.490;14.376;2023-04-15T01:40:58;100576.31;;;5.53;100.00
65557;BME280;52200;53.490;14.376;2023-04-15T01:43:25;100578.88;;;5.49;100.00
65557;BME280;52200;53.490;14.376;2023-04-15T01:45:50;100586.50;;;5.43;99.80
65557;BME280;52200;53.490;14.376;2023-04-15T01:48:16;100571.44;;;5.32;100.00
65557;BME280;52200;53.490;14.376;2023-04-15T01:50:42;100580.00;;;5.07;100.00
65557;BME280;52200;53.490;14.376;2023-04-15T01:53:07;100586.81;;;4.92;100.00
65557;BME280;52200;53.490;14.376;2023-04-15T01:55:32;100590.22;;;4.82;100.00
65557;BME280;52200;53.490;14.376;2023-04-15T01:57:58;100584.47;;;4.60;100.00
65557;BME280;52200;53.490;14.376;2023-04-15T02:00:23;100583.66;;;4.51;100.00
65557;BME280;52200;53.490;14.376;2023-04-15T02:02:49;100584.34;;;4.88;100.00
65557;BME280;52200;53.490;14.376;2023-04-15T02:05:14;100580.88;;;5.04;100.00
65557;BME280;52200;53.490;14.376;2023-04-15T02:07:41;100580.84;;;5.10;100.00
65557;BME280;52200;53.490;14.376;2023-04-15T02:10:08;100580.88;;;5.04;100.00
65557;BME280;52200;53.490;14.376;2023-04-15T02:12:33;100579.13;;;5.11;100.00
65557;BME280;52200;53.490;14.376;2023-04-15T02:14:58;100577.50;;;5.04;100.00
65557;BME280;52200;53.490;14.376;2023-04-15T02:17:24;100585.00;;;5.14;100.00
65557;BME280;52200;53.490;14.376;2023-04-15T02:19:49;100589.91;;;5.36;100.00
65557;BME280;52200;53.490;14.376;2023-04-15T02:22:14;100588.97;;;5.46;99.60
65557;BME280;52200;53.490;14.376;2023-04-15T02:24:43;100585.66;;;5.41;99.42
65557;BME280;52200;53.490;14.376;2023-04-15T02:27:10;100589.03;;;5.39;99.83
65557;BME280;52200;53.490;14.376;2023-04-15T02:29:39;100592.34;;;5.44;99.87
65557;BME280;52200;53.490;14.376;2023-04-15T02:32:05;100589.16;;;5.22;99.33
65557;BME280;52200;53.490;14.376;2023-04-15T02:34:30;100583.41;;;5.03;99.57
65557;BME280;52200;53.490;14.376;2023-04-15T02:36:55;100580.91;;;4.95;100.00
65557;BME280;52200;53.490;14.376;2023-04-15T02:39:22;100587.50;;;5.18;99.56
65557;BME280;52200;53.490;14.376;2023-04-15T02:41:47;100590.97;;;4.95;99.77
65557;BME280;52200;53.490;14.376;2023-04-15T02:44:16;100588.47;;;4.96;98.79
65557;BME280;52200;53.490;14.376;2023-04-15T02:46:44;100585.97;;;4.89;99.45
65557;BME280;52200;53.490;14.376;2023-04-15T02:49:12;100585.25;;;4.74;100.00
65557;BME280;52200;53.490;14.376;2023-04-15T02:51:38;100584.53;;;4.41;100.00
65557;BME280;52200;53.490;14.376;2023-04-15T02:54:03;100592.00;;;4.60;100.00
65557;BME280;52200;53.490;14.376;2023-04-15T02:56:29;100584.41;;;4.75;100.00
65557;BME280;52200;53.490;14.376;2023-04-15T02:58:55;100589.34;;;4.94;100.00
65557;BME280;52200;53.490;14.376;2023-04-15T03:01:20;100583.50;;;4.84;100.00
65557;BME280;52200;53.490;14.376;2023-04-15T03:03:46;100585.16;;;4.85;99.71
65557;BME280;52200;53.490;14.376;2023-04-15T03:06:13;100600.25;;;4.90;99.26
65557;BME280;52200;53.490;14.376;2023-04-15T03:08:38;100594.44;;;4.81;99.35
65557;BME280;52200;53.490;14.376;2023-04-15T03:11:04;100599.47;;;4.74;99.01
65557;BME280;52200;53.490;14.376;2023-04-15T03:13:29;100600.28;;;4.83;98.72
65557;BME280;52200;53.490;14.376;2023-04-15T03:15:54;100607.88;;;4.74;98.12
65557;BME280;52200;53.490;14.376;2023-04-15T03:18:20;100607.97;;;4.52;98.23
65557;BME280;52200;53.490;14.376;2023-04-15T03:20:45;100612.16;;;4.55;97.91
65557;BME280;52200;53.490;14.376;2023-04-15T03:23:11;100607.16;;;4.50;98.33
65557;BME280;52200;53.490;14.376;2023-04-15T03:25:36;100617.22;;;4.47;98.68
65557;BME280;52200;53.490;14.376;2023-04-15T03:28:02;100611.31;;;4.56;98.64
65557;BME280;52200;53.490;14.376;2023-04-15T03:30:27;100611.34;;;4.48;98.32
65557;BME280;52200;53.490;14.376;2023-04-15T03:32:53;100611.38;;;4.33;98.99
65557;BME280;52200;53.490;14.376;2023-04-15T03:35:18;100613.81;;;4.58;99.31
65557;BME280;52200;53.490;14.376;2023-04-15T03:37:43;100615.44;;;4.66;99.91
65557;BME280;52200;53.490;14.376;2023-04-15T03:40:09;100617.03;;;4.86;100.00
65557;BME280;52200;53.490;14.376;2023-04-15T03:42:35;100612.84;;;4.90;100.00
65557;BME280;52200;53.490;14.376;2023-04-15T03:45:00;100617.84;;;4.91;100.00
65557;BME280;52200;53.490;14.376;2023-04-15T03:47:25;100615.28;;;5.04;100.00
65557;BME280;52200;53.490;14.376;2023-04-15T03:49:51;100607.72;;;5.05;100.00
65557;BME280;52200;53.490;14.376;2023-04-15T03:52:16;100617.72;;;5.18;100.00
65557;BME280;52200;53.490;14.376;2023-04-15T03:54:41;100621.09;;;5.16;100.00
65557;BME280;52200;53.490;14.376;2023-04-15T03:57:07;100630.38;;;5.05;100.00
65557;BME280;52200;53.490;14.376;2023-04-15T03:59:32;100624.53;;;4.98;100.00
65557;BME280;52200;53.490;14.376;2023-04-15T04:01:57;100623.00;;;4.70;99.57
65557;BME280;52200;53.490;14.376;2023-04-15T04:04:23;100625.63;;;4.43;99.41
65557;BME280;52200;53.490;14.376;2023-04-15T04:06:48;100628.13;;;4.43;99.73
65557;BME280;52200;53.490;14.376;2023-04-15T04:09:13;100623.91;;;4.44;98.76
65557;BME280;52200;53.490;14.376;2023-04-15T04:11:39;100621.44;;;4.41;98.61
65557;BME280;52200;53.490;14.376;2023-04-15T04:14:04;100629.84;;;4.29;98.84
65557;BME280;52200;53.490;14.376;2023-04-15T04:16:29;100629.91;;;4.07;99.76
65557;BME280;52200;53.490;14.376;2023-04-15T04:18:55;100632.38;;;4.23;98.65
65557;BME280;52200;53.490;14.376;2023-04-15T04:21:20;100632.38;;;4.16;98.85
65557;BME280;52200;53.490;14.376;2023-04-15T04:23:46;100629.84;;;4.26;98.74
65557;BME280;52200;53.490;14.376;2023-04-15T04:26:11;100636.50;;;4.39;98.16
65557;BME280;52200;53.490;14.376;2023-04-15T04:28:36;100639.03;;;4.41;98.17
65557;BME280;52200;53.490;14.376;2023-04-15T04:31:05;100643.19;;;4.46;98.52
65557;BME280;52200;53.490;14.376;2023-04-15T04:33:30;100641.50;;;4.55;98.34
65557;BME280;52200;53.490;14.376;2023-04-15T04:35:56;100653.25;;;4.56;98.28
65557;BME280;52200;53.490;14.376;2023-04-15T04:38:21;100655.69;;;4.73;97.45
65557;BME280;52200;53.490;14.376;2023-04-15T04:40:47;100656.50;;;4.76;97.46
65557;BME280;52200;53.490;14.376;2023-04-15T04:43:12;100656.47;;;4.82;97.63
65557;BME280;52200;53.490;14.376;2023-04-15T04:45:38;100655.59;;;4.94;98.26
65557;BME280;52200;53.490;14.376;2023-04-15T04:48:04;100655.50;;;5.18;97.35
65557;BME280;52200;53.490;14.376;2023-04-15T04:50:31;100660.44;;;5.35;97.54
65557;BME280;52200;53.490;14.376;2023-04-15T04:52:56;100660.31;;;5.52;97.11
65557;BME280;52200;53.490;14.376;2023-04-15T04:55:21;100659.41;;;5.63;97.21
65557;BME280;52200;53.490;14.376;2023-04-15T04:57:47;100656.78;;;5.73;97.08
65557;BME280;52200;53.490;14.376;2023-04-15T05:00:12;100655.78;;;5.94;97.11
65557;BME280;52200;53.490;14.376;2023-04-15T05:02:38;100660.72;;;6.09;97.36
65557;BME280;52200;53.490;14.376;2023-04-15T05:05:03;100658.94;;;6.21;96.91
65557;BME280;52200;53.490;14.376;2023-04-15T05:07:29;100660.44;;;6.37;96.95
65557;BME280;52200;53.490;14.376;2023-04-15T05:09:54;100656.81;;;6.61;98.44
65557;BME280;52200;53.490;14.376;2023-04-15T05:12:20;100658.22;;;6.87;98.86
65557;BME280;52200;53.490;14.376;2023-04-15T05:14:45;100655.34;;;7.14;99.40
65557;BME280;52200;53.490;14.376;2023-04-15T05:17:11;100653.19;;;7.47;96.67
65557;BME280;52200;53.490;14.376;2023-04-15T05:19:36;100658.19;;;7.51;97.46
65557;BME280;52200;53.490;14.376;2023-04-15T05:22:02;100667.03;;;7.77;96.78
65557;BME280;52200;53.490;14.376;2023-04-15T05:24:27;100663.69;;;7.77;97.51
65557;BME280;52200;53.490;14.376;2023-04-15T05:26:52;100660.91;;;7.90;98.08
65557;BME280;52200;53.490;14.376;2023-04-15T05:29:18;100658.75;;;8.20;96.13
65557;BME280;52200;53.490;14.376;2023-04-15T05:31:43;100662.78;;;8.29;96.35
65557;BME280;52200;53.490;14.376;2023-04-15T05:34:09;100670.31;;;8.32;98.16
65557;BME280;52200;53.490;14.376;2023-04-15T05:36:36;100665.06;;;8.43;96.72
65557;BME280;52200;53.490;14.376;2023-04-15T05:39:01;100663.25;;;8.51;97.29
65557;BME280;52200;53.490;14.376;2023-04-15T05:41:27;100660.78;;;8.48;97.07
65557;BME280;52200;53.490;14.376;2023-04-15T05:43:52;100658.44;;;8.36;97.81
65557;BME280;52200;53.490;14.376;2023-04-15T05:46:18;100665.81;;;8.50;97.88
65557;BME280;52200;53.490;14.376;2023-04-15T05:48:43;100667.00;;;8.76;96.51
65557;BME280;52200;53.490;14.376;2023-04-15T05:51:09;100667.25;;;8.63;96.37
65557;BME280;52200;53.490;14.376;2023-04-15T05:53:34;100666.81;;;8.85;96.71
65557;BME280;52200;53.490;14.376;2023-04-15T05:56:00;100666.88;;;8.82;96.24
65557;BME280;52200;53.490;14.376;2023-04-15T05:58:25;100663.41;;;8.86;95.24
65557;BME280;52200;53.490;14.376;2023-04-15T06:00:51;100677.81;;;8.84;95.44
65557;BME280;52200;53.490;14.376;2023-04-15T06:03:16;100677.13;;;8.76;96.31
65557;BME280;52200;53.490;14.376;2023-04-15T06:05:42;100681.25;;;8.81;96.73
65557;BME280;52200;53.490;14.376;2023-04-15T06:08:09;100679.50;;;8.83;96.38
65557;BME280;52200;53.490;14.376;2023-04-15T06:10:34;100683.69;;;8.84;95.72
65557;BME280;52200;53.490;14.376;2023-04-15T06:13:04;100681.72;;;8.57;96.86
65557;BME280;52200;53.490;14.376;2023-04-15T06:15:29;100681.38;;;8.74;97.26
65557;BME280;52200;53.490;14.376;2023-04-15T06:17:55;100690.91;;;9.03;96.57
65557;BME280;52200;53.490;14.376;2023-04-15T06:20:21;100689.50;;;9.30;95.60
65557;BME280;52200;53.490;14.376;2023-04-15T06:22:46;100689.06;;;9.50;93.59
65557;BME280;52200;53.490;14.376;2023-04-15T06:25:12;100693.31;;;9.48;92.95
65557;BME280;52200;53.490;14.376;2023-04-15T06:27:38;100685.09;;;9.39;93.36
65557;BME280;52200;53.490;14.376;2023-04-15T06:30:04;100680.44;;;9.58;92.38
65557;BME280;52200;53.490;14.376;2023-04-15T06:32:31;100682.38;;;9.46;92.28
65557;BME280;52200;53.490;14.376;2023-04-15T06:34:56;100682.91;;;9.61;92.19
65557;BME280;52200;53.490;14.376;2023-04-15T06:37:22;100689.69;;;9.95;91.76
65557;BME280;52200;53.490;14.376;2023-04-15T06:39:47;100688.75;;;9.99;90.26
65557;BME280;52200;53.490;14.376;2023-04-15T06:42:13;100689.97;;;10.19;90.56
65557;BME280;52200;53.490;14.376;2023-04-15T06:44:38;100693.38;;;9.83;90.62
65557;BME280;52200;53.490;14.376;2023-04-15T06:47:04;100691.16;;;10.05;90.63
65557;BME280;52200;53.490;14.376;2023-04-15T06:49:29;100695.97;;;9.81;91.05
65557;BME280;52200;53.490;14.376;2023-04-15T06:51:55;100693.38;;;9.83;90.37
65557;BME280;52200;53.490;14.376;2023-04-15T06:54:20;100691.34;;;9.97;90.96
65557;BME280;52200;53.490;14.376;2023-04-15T06:56:46;100693.06;;;10.30;90.45
65557;BME280;52200;53.490;14.376;2023-04-15T06:59:12;100697.22;;;10.32;90.04
65557;BME280;52200;53.490;14.376;2023-04-15T07:01:39;100695.84;;;10.19;89.27
65557;BME280;52200;53.490;14.376;2023-04-15T07:04:05;100698.66;;;10.08;89.91
65557;BME280;52200;53.490;14.376;2023-04-15T07:06:30;100704.13;;;9.93;89.32
65557;BME280;52200;53.490;14.376;2023-04-15T07:08:57;100700.94;;;10.19;89.11
65557;BME280;52200;53.490;14.376;2023-04-15T07:11:22;100701.69;;;10.23;89.45
65557;BME280;52200;53.490;14.376;2023-04-15T07:13:47;100699.81;;;10.29;88.99
65557;BME280;52200;53.490;14.376;2023-04-15T07:16:12;100696.66;;;10.21;90.23
65557;BME280;52200;53.490;14.376;2023-04-15T07:18:38;100697.56;;;10.52;88.66
65557;BME280;52200;53.490;14.376;2023-04-15T07:21:04;100706.06;;;10.82;88.37
65557;BME280;52200;53.490;14.376;2023-04-15T07:23:29;100706.78;;;10.87;86.59
65557;BME280;52200;53.490;14.376;2023-04-15T07:25:55;100703.88;;;11.00;86.82
65557;BME280;52200;53.490;14.376;2023-04-15T07:28:21;100705.63;;;11.27;84.90
65557;BME280;52200;53.490;14.376;2023-04-15T07:30:47;100695.28;;;11.32;85.85
65557;BME280;52200;53.490;14.376;2023-04-15T07:33:13;100701.25;;;11.86;84.61
65557;BME280;52200;53.490;14.376;2023-04-15T07:35:38;100697.13;;;11.55;84.34
65557;BME280;52200;53.490;14.376;2023-04-15T07:38:03;100705.00;;;11.48;84.34
65557;BME280;52200;53.490;14.376;2023-04-15T07:40:29;100703.50;;;11.69;84.08
65557;BME280;52200;53.490;14.376;2023-04-15T07:42:57;100708.78;;;12.16;83.20
65557;BME280;52200;53.490;14.376;2023-04-15T07:45:23;100712.03;;;12.21;82.75
65557;BME280;52200;53.490;14.376;2023-04-15T07:47:48;100709.81;;;11.84;82.96
65557;BME280;52200;53.490;14.376;2023-04-15T07:50:15;100711.97;;;11.41;83.65
65557;BME280;52200;53.490;14.376;2023-04-15T07:52:42;100709.72;;;11.87;82.65
65557;BME280;52200;53.490;14.376;2023-04-15T07:55:08;100709.22;;;12.29;82.00
65557;BME280;52200;53.490;14.376;2023-04-15T08:00:55;100710.97;;;12.02;81.60
65557;BME280;52200;53.490;14.376;2023-04-15T08:03:21;100719.69;;;12.45;80.57
65557;BME280;52200;53.490;14.376;2023-04-15T08:05:47;100716.31;;;12.68;80.61
65557;BME280;52200;53.490;14.376;2023-04-15T08:08:13;100719.81;;;13.13;79.04
65557;BME280;52200;53.490;14.376;2023-04-15T08:10:38;100718.78;;;12.71;78.87
65557;BME280;52200;53.490;14.376;2023-04-15T08:13:04;100716.72;;;12.81;78.42
65557;BME280;52200;53.490;14.376;2023-04-15T08:15:30;100724.25;;;12.61;79.34
65557;BME280;52200;53.490;14.376;2023-04-15T08:17:57;100721.47;;;12.90;78.03
65557;BME280;52200;53.490;14.376;2023-04-15T08:20:24;100722.00;;;12.28;78.81
65557;BME280;52200;53.490;14.376;2023-04-15T08:22:50;100727.59;;;12.37;79.65
65557;BME280;52200;53.490;14.376;2023-04-15T08:25:17;100728.84;;;12.25;79.80
65557;BME280;52200;53.490;14.376;2023-04-15T08:27:42;100730.09;;;12.14;80.11
65557;BME280;52200;53.490;14.376;2023-04-15T08:30:08;100733.75;;;12.32;80.45
65557;BME280;52200;53.490;14.376;2023-04-15T08:32:34;100727.88;;;12.53;78.61
65557;BME280;52200;53.490;14.376;2023-04-15T08:34:59;100730.78;;;12.68;78.34
65557;BME280;52200;53.490;14.376;2023-04-15T08:37:25;100735.09;;;12.42;78.03
65557;BME280;52200;53.490;14.376;2023-04-15T08:39:51;100736.16;;;12.09;79.38
65557;BME280;52200;53.490;14.376;2023-04-15T08:42:18;100736.78;;;12.16;79.91
65557;BME280;52200;53.490;14.376;2023-04-15T08:44:48;100737.88;;;12.60;78.52
65557;BME280;52200;53.490;14.376;2023-04-15T08:47:15;100742.63;;;12.45;78.67
65557;BME280;52200;53.490;14.376;2023-04-15T08:49:45;100742.59;;;12.94;77.57
65557;BME280;52200;53.490;14.376;2023-04-15T08:52:12;100745.28;;;12.42;78.13
65557;BME280;52200;53.490;14.376;2023-04-15T08:54:38;100738.94;;;12.54;79.14
65557;BME280;52200;53.490;14.376;2023-04-15T08:57:04;100744.41;;;12.92;77.65
65557;BME280;52200;53.490;14.376;2023-04-15T08:59:31;100758.56;;;13.23;76.95
65557;BME280;52200;53.490;14.376;2023-04-15T09:01:57;100752.81;;;13.42;77.01
65557;BME280;52200;53.490;14.376;2023-04-15T09:04:22;100758.00;;;13.38;75.72
65557;BME280;52200;53.490;14.376;2023-04-15T09:06:48;100756.44;;;12.87;76.72
65557;BME280;52200;53.490;14.376;2023-04-15T09:09:13;100753.44;;;13.01;76.92
65557;BME280;52200;53.490;14.376;2023-04-15T09:11:39;100763.13;;;13.37;77.38
65557;BME280;52200;53.490;14.376;2023-04-15T09:14:04;100759.06;;;13.33;76.13
65557;BME280;52200;53.490;14.376;2023-04-15T09:16:30;100761.75;;;12.82;76.55
65557;BME280;52200;53.490;14.376;2023-04-15T09:18:56;100759.78;;;12.65;77.49
65557;BME280;52200;53.490;14.376;2023-04-15T09:21:21;100759.06;;;12.85;78.35
65557;BME280;52200;53.490;14.376;2023-04-15T09:26:37;100770.16;;;13.08;76.72
65557;BME280;52200;53.490;14.376;2023-04-15T09:29:10;100767.88;;;12.77;77.56
65557;BME280;52200;53.490;14.376;2023-04-15T09:31:40;100769.03;;;12.68;77.17
65557;BME280;52200;53.490;14.376;2023-04-15T09:34:06;100771.88;;;12.84;77.91
65557;BME280;52200;53.490;14.376;2023-04-15T09:39:16;100774.72;;;13.00;76.95
65557;BME280;52200;53.490;14.376;2023-04-15T09:41:41;100769.81;;;12.94;77.33
65557;BME280;52200;53.490;14.376;2023-04-15T09:44:24;100773.13;;;12.72;77.84
65557;BME280;52200;53.490;14.376;2023-04-15T09:46:50;100767.22;;;12.71;77.83
65557;BME280;52200;53.490;14.376;2023-04-15T09:49:16;100780.31;;;12.35;78.21
65557;BME280;52200;53.490;14.376;2023-04-15T09:51:42;100773.94;;;12.49;78.75
65557;BME280;52200;53.490;14.376;2023-04-15T09:54:08;100775.75;;;12.45;78.92
65557;BME280;52200;53.490;14.376;2023-04-15T09:56:35;100788.03;;;12.59;78.56
65557;BME280;52200;53.490;14.376;2023-04-15T09:59:04;100778.22;;;12.72;78.01
65557;BME280;52200;53.490;14.376;2023-04-15T10:01:30;100789.22;;;12.98;76.89
65557;BME280;52200;53.490;14.376;2023-04-15T10:03:56;100791.66;;;12.77;78.30
65557;BME280;52200;53.490;14.376;2023-04-15T10:06:23;100793.31;;;12.53;78.42
65557;BME280;52200;53.490;14.376;2023-04-15T10:08:50;100786.19;;;12.63;77.94
65557;BME280;52200;53.490;14.376;2023-04-15T10:11:17;100788.28;;;12.51;78.43
65557;BME280;52200;53.490;14.376;2023-04-15T10:13:45;100793.38;;;12.77;78.27
65557;BME280;52200;53.490;14.376;2023-04-15T10:16:14;100796.19;;;12.69;78.09
65557;BME280;52200;53.490;14.376;2023-04-15T10:18:53;100790.72;;;13.03;78.09
65557;BME280;52200;53.490;14.376;2023-04-15T10:21:19;100797.63;;;12.76;77.09
65557;BME280;52200;53.490;14.376;2023-04-15T10:23:47;100795.72;;;12.57;77.83
65557;BME280;52200;53.490;14.376;2023-04-15T10:26:12;100789.63;;;12.36;77.74
65557;BME280;52200;53.490;14.376;2023-04-15T10:28:45;100794.75;;;12.09;78.69
65557;BME280;52200;53.490;14.376;2023-04-15T10:31:14;100801.88;;;11.98;79.85
65557;BME280;52200;53.490;14.376;2023-04-15T10:33:42;100800.16;;;11.70;80.99
65557;BME280;52200;53.490;14.376;2023-04-15T10:36:09;100800.44;;;11.89;80.51
65557;BME280;52200;53.490;14.376;2023-04-15T10:38:44;100804.53;;;11.93;80.11
65557;BME280;52200;53.490;14.376;2023-04-15T10:41:17;100801.88;;;11.70;80.71
65557;BME280;52200;53.490;14.376;2023-04-15T10:44:00;100801.94;;;11.67;81.25
65557;BME280;52200;53.490;14.376;2023-04-15T10:46:39;100805.44;;;11.64;80.94
65557;BME280;52200;53.490;14.376;2023-04-15T10:49:12;100803.88;;;11.60;81.47
65557;BME280;52200;53.490;14.376;2023-04-15T10:51:40;100812.78;;;11.45;81.60
65557;BME280;52200;53.490;14.376;2023-04-15T10:54:13;100814.72;;;11.65;81.33
65557;BME280;52200;53.490;14.376;2023-04-15T10:56:43;100816.53;;;11.61;80.86
65557;BME280;52200;53.490;14.376;2023-04-15T10:59:09;100811.63;;;11.55;81.37
65557;BME280;52200;53.490;14.376;2023-04-15T11:01:56;100813.66;;;11.44;82.13
65557;BME280;52200;53.490;14.376;2023-04-15T11:07:39;100818.88;;;11.68;81.12
65557;BME280;52200;53.490;14.376;2023-04-15T11:12:57;100823.91;;;11.71;81.67
65557;BME280;52200;53.490;14.376;2023-04-15T11:15:30;100823.78;;;11.74;81.84
65557;BME280;52200;53.490;14.376;2023-04-15T11:20:35;100828.91;;;12.02;80.45
65557;BME280;52200;53.490;14.376;2023-04-15T11:23:01;100827.97;;;12.05;79.95
65557;BME280;52200;53.490;14.376;2023-04-15T11:25:28;100817.78;;;12.05;80.75
65557;BME280;52200;53.490;14.376;2023-04-15T11:27:54;100820.63;;;12.22;79.77
65557;BME280;52200;53.490;14.376;2023-04-15T11:30:26;100828.28;;;12.49;78.49
65557;BME280;52200;53.490;14.376;2023-04-15T11:32:56;100833.09;;;12.32;78.60
65557;BME280;52200;53.490;14.376;2023-04-15T11:35:22;100832.22;;;12.33;78.81
65557;BME280;52200;53.490;14.376;2023-04-15T11:37:48;100837.09;;;12.39;78.53
65557;BME280;52200;53.490;14.376;2023-04-15T11:40:14;100835.13;;;12.47;77.83
65557;BME280;52200;53.490;14.376;2023-04-15T11:42:42;100836.44;;;12.34;78.11
65557;BME280;52200;53.490;14.376;2023-04-15T11:45:14;100844.75;;;12.12;79.24
65557;BME280;52200;53.490;14.376;2023-04-15T11:47:41;100848.97;;;12.40;78.98
65557;BME280;52200;53.490;14.376;2023-04-15T11:50:22;100843.47;;;12.52;77.56
65557;BME280;52200;53.490;14.376;2023-04-15T11:52:58;100846.84;;;12.26;79.12
65557;BME280;52200;53.490;14.376;2023-04-15T11:55:24;100852.50;;;12.07;79.46
65557;BME280;52200;53.490;14.376;2023-04-15T11:58:11;100852.56;;;12.06;79.78
65557;BME280;52200;53.490;14.376;2023-04-15T12:00:39;100854.53;;;12.24;79.66
65557;BME280;52200;53.490;14.376;2023-04-15T12:03:29;100854.78;;;12.17;79.19
65557;BME280;52200;53.490;14.376;2023-04-15T12:06:19;100862.81;;;12.04;79.34
65557;BME280;52200;53.490;14.376;2023-04-15T12:11:27;100864.06;;;11.89;79.41
65557;BME280;52200;53.490;14.376;2023-04-15T12:14:29;100863.63;;;12.05;80.23
65557;BME280;52200;53.490;14.376;2023-04-15T12:16:58;100868.53;;;12.11;79.28
65557;BME280;52200;53.490;14.376;2023-04-15T12:19:36;100866.41;;;12.25;78.78
65557;BME280;52200;53.490;14.376;2023-04-15T12:22:08;100868.16;;;12.50;78.72
65557;BME280;52200;53.490;14.376;2023-04-15T12:24:35;100874.84;;;12.28;78.83
65557;BME280;52200;53.490;14.376;2023-04-15T12:27:03;100871.00;;;11.84;78.74
65557;BME280;52200;53.490;14.376;2023-04-15T12:29:29;100879.72;;;11.77;79.19
65557;BME280;52200;53.490;14.376;2023-04-15T12:34:29;100884.84;;;12.05;79.33
65557;BME280;52200;53.490;14.376;2023-04-15T12:36:56;100884.19;;;12.27;79.01
65557;BME280;52200;53.490;14.376;2023-04-15T12:39:24;100887.22;;;12.10;79.37
65557;BME280;52200;53.490;14.376;2023-04-15T12:41:50;100885.59;;;12.09;79.34
65557;BME280;52200;53.490;14.376;2023-04-15T12:44:15;100888.34;;;12.01;79.65
65557;BME280;52200;53.490;14.376;2023-04-15T12:46:41;100889.63;;;11.86;79.91
65557;BME280;52200;53.490;14.376;2023-04-15T12:49:07;100891.50;;;12.09;80.04
65557;BME280;52200;53.490;14.376;2023-04-15T12:51:33;100894.66;;;12.18;79.84
65557;BME280;52200;53.490;14.376;2023-04-15T12:53:58;100900.13;;;12.05;79.38
65557;BME280;52200;53.490;14.376;2023-04-15T12:56:24;100894.53;;;11.92;79.37
65557;BME280;52200;53.490;14.376;2023-04-15T12:58:49;100901.06;;;12.03;79.97
65557;BME280;52200;53.490;14.376;2023-04-15T13:01:16;100904.66;;;12.24;79.67
65557;BME280;52200;53.490;14.376;2023-04-15T13:03:41;100898.47;;;12.04;79.38